Port Mellon, Canada
Current Conditions -  °F | °C
As of 4:00 PM on Sunday 25 Jan 2015 (Local Time) from CYVR Reporting Station
Overcast Overcast  
Wind Chill: 52°   Ceiling: 18000
Heat Index: 52°   Visibility: 20mi
Dew Point: 50°   Wind: 3mph
Humidity: 94%   Direction: 280°W
Pressure: 30.1"   Gusts: NA
Location:  49.52°N, 123.48°W
Report Text: CYVR 260000Z 28003KT 20SM FEW020 BKN180 OVC240 11/10 A3010 RMK CF2AC4CS2 SLP192
Loading
Personal Weather Stations






























Interactive Weather Map New forecast layout! Learn more

10-Day Weather Forecast

Advertisements
Track Severe Weather on mobile